sensor_id;sensor_type;location;lat;lon;timestamp;P1;durP1;ratioP1;P2;durP2;ratioP2
40649;SDS011;26342;42.826;23.992;2023-05-07T00:02:48;1.63;;;0.73;;
40649;SDS011;26342;42.826;23.992;2023-05-07T00:05:21;1.05;;;0.98;;
40649;SDS011;26342;42.826;23.992;2023-05-07T00:07:48;1.10;;;1.00;;
40649;SDS011;26342;42.826;23.992;2023-05-07T00:10:15;1.33;;;0.85;;
40649;SDS011;26342;42.826;23.992;2023-05-07T00:12:40;0.63;;;0.63;;
40649;SDS011;26342;42.826;23.992;2023-05-07T00:15:06;1.15;;;0.77;;
40649;SDS011;26342;42.826;23.992;2023-05-07T00:17:34;1.92;;;1.08;;
40649;SDS011;26342;42.826;23.992;2023-05-07T00:20:02;1.63;;;1.05;;
40649;SDS011;26342;42.826;23.992;2023-05-07T00:22:36;0.40;;;0.40;;
40649;SDS011;26342;42.826;23.992;2023-05-07T00:25:03;0.80;;;0.80;;
40649;SDS011;26342;42.826;23.992;2023-05-07T00:27:30;1.17;;;0.85;;
40649;SDS011;26342;42.826;23.992;2023-05-07T00:29:55;0.55;;;0.55;;
40649;SDS011;26342;42.826;23.992;2023-05-07T00:32:26;0.52;;;0.43;;
40649;SDS011;26342;42.826;23.992;2023-05-07T00:35:00;0.45;;;0.45;;
40649;SDS011;26342;42.826;23.992;2023-05-07T00:37:26;0.90;;;0.88;;
40649;SDS011;26342;42.826;23.992;2023-05-07T00:39:53;1.55;;;1.45;;
40649;SDS011;26342;42.826;23.992;2023-05-07T00:42:19;1.42;;;1.00;;
40649;SDS011;26342;42.826;23.992;2023-05-07T00:44:44;0.82;;;0.65;;
40649;SDS011;26342;42.826;23.992;2023-05-07T00:47:10;1.30;;;1.17;;
40649;SDS011;26342;42.826;23.992;2023-05-07T00:49:38;1.10;;;0.77;;
40649;SDS011;26342;42.826;23.992;2023-05-07T00:52:13;0.80;;;0.52;;
40649;SDS011;26342;42.826;23.992;2023-05-07T00:54:41;1.42;;;0.88;;
40649;SDS011;26342;42.826;23.992;2023-05-07T00:57:07;0.77;;;0.68;;
40649;SDS011;26342;42.826;23.992;2023-05-07T00:59:34;0.40;;;0.40;;
40649;SDS011;26342;42.826;23.992;2023-05-07T01:02:00;2.35;;;1.50;;
40649;SDS011;26342;42.826;23.992;2023-05-07T01:04:25;1.73;;;1.40;;
40649;SDS011;26342;42.826;23.992;2023-05-07T01:06:51;2.22;;;1.23;;
40649;SDS011;26342;42.826;23.992;2023-05-07T01:09:21;1.02;;;0.73;;
40649;SDS011;26342;42.826;23.992;2023-05-07T01:11:47;1.27;;;0.90;;
40649;SDS011;26342;42.826;23.992;2023-05-07T01:14:15;0.57;;;0.57;;
40649;SDS011;26342;42.826;23.992;2023-05-07T01:16:41;2.15;;;1.45;;
40649;SDS011;26342;42.826;23.992;2023-05-07T01:19:07;2.70;;;0.73;;
40649;SDS011;26342;42.826;23.992;2023-05-07T01:21:36;1.63;;;0.82;;
40649;SDS011;26342;42.826;23.992;2023-05-07T01:24:03;0.63;;;0.60;;
40649;SDS011;26342;42.826;23.992;2023-05-07T01:26:30;1.38;;;1.27;;
40649;SDS011;26342;42.826;23.992;2023-05-07T01:28:56;3.20;;;1.63;;
40649;SDS011;26342;42.826;23.992;2023-05-07T01:31:21;3.65;;;2.63;;
40649;SDS011;26342;42.826;23.992;2023-05-07T01:33:48;4.38;;;1.42;;
40649;SDS011;26342;42.826;23.992;2023-05-07T01:36:17;0.70;;;0.70;;
40649;SDS011;26342;42.826;23.992;2023-05-07T01:38:43;0.60;;;0.55;;
40649;SDS011;26342;42.826;23.992;2023-05-07T01:41:10;0.85;;;0.85;;
40649;SDS011;26342;42.826;23.992;2023-05-07T01:43:36;2.10;;;1.58;;
40649;SDS011;26342;42.826;23.992;2023-05-07T01:46:02;1.25;;;1.15;;
40649;SDS011;26342;42.826;23.992;2023-05-07T01:48:28;4.93;;;1.90;;
40649;SDS011;26342;42.826;23.992;2023-05-07T01:50:54;1.65;;;1.55;;
40649;SDS011;26342;42.826;23.992;2023-05-07T01:53:21;3.05;;;1.40;;
40649;SDS011;26342;42.826;23.992;2023-05-07T01:55:47;6.60;;;1.38;;
40649;SDS011;26342;42.826;23.992;2023-05-07T01:58:13;4.47;;;1.20;;
40649;SDS011;26342;42.826;23.992;2023-05-07T02:00:39;0.98;;;0.68;;
40649;SDS011;26342;42.826;23.992;2023-05-07T02:03:05;2.53;;;1.00;;
40649;SDS011;26342;42.826;23.992;2023-05-07T02:05:31;0.45;;;0.45;;
40649;SDS011;26342;42.826;23.992;2023-05-07T02:07:56;1.52;;;1.00;;
40649;SDS011;26342;42.826;23.992;2023-05-07T02:10:22;1.02;;;0.95;;
40649;SDS011;26342;42.826;23.992;2023-05-07T02:12:47;1.23;;;0.90;;
40649;SDS011;26342;42.826;23.992;2023-05-07T02:15:13;0.47;;;0.47;;
40649;SDS011;26342;42.826;23.992;2023-05-07T02:20:24;0.50;;;0.47;;
40649;SDS011;26342;42.826;23.992;2023-05-07T02:22:49;0.43;;;0.30;;
40649;SDS011;26342;42.826;23.992;2023-05-07T02:25:14;0.45;;;0.45;;
40649;SDS011;26342;42.826;23.992;2023-05-07T02:27:40;0.85;;;0.45;;
40649;SDS011;26342;42.826;23.992;2023-05-07T02:30:05;1.35;;;0.90;;
40649;SDS011;26342;42.826;23.992;2023-05-07T02:32:32;0.75;;;0.73;;
40649;SDS011;26342;42.826;23.992;2023-05-07T02:34:57;2.33;;;0.73;;
40649;SDS011;26342;42.826;23.992;2023-05-07T02:37:23;0.55;;;0.55;;
40649;SDS011;26342;42.826;23.992;2023-05-07T02:39:51;1.60;;;0.80;;
40649;SDS011;26342;42.826;23.992;2023-05-07T02:42:17;0.20;;;0.20;;
40649;SDS011;26342;42.826;23.992;2023-05-07T02:44:44;0.60;;;0.57;;
40649;SDS011;26342;42.826;23.992;2023-05-07T02:47:13;1.45;;;0.32;;
40649;SDS011;26342;42.826;23.992;2023-05-07T02:49:40;1.40;;;1.30;;
40649;SDS011;26342;42.826;23.992;2023-05-07T02:52:06;1.40;;;0.50;;
40649;SDS011;26342;42.826;23.992;2023-05-07T02:54:33;1.90;;;0.73;;
40649;SDS011;26342;42.826;23.992;2023-05-07T02:56:58;1.60;;;1.42;;
40649;SDS011;26342;42.826;23.992;2023-05-07T02:59:25;3.15;;;1.35;;
40649;SDS011;26342;42.826;23.992;2023-05-07T03:01:51;3.55;;;2.13;;
40649;SDS011;26342;42.826;23.992;2023-05-07T03:04:16;1.80;;;1.70;;
40649;SDS011;26342;42.826;23.992;2023-05-07T03:06:51;9.98;;;2.55;;
40649;SDS011;26342;42.826;23.992;2023-05-07T03:09:25;4.70;;;4.18;;
40649;SDS011;26342;42.826;23.992;2023-05-07T03:11:51;4.68;;;4.25;;
40649;SDS011;26342;42.826;23.992;2023-05-07T03:14:16;2.35;;;1.95;;
40649;SDS011;26342;42.826;23.992;2023-05-07T03:16:42;1.73;;;1.63;;
40649;SDS011;26342;42.826;23.992;2023-05-07T03:19:07;1.35;;;1.13;;
40649;SDS011;26342;42.826;23.992;2023-05-07T03:21:33;1.38;;;1.27;;
40649;SDS011;26342;42.826;23.992;2023-05-07T03:23:59;3.42;;;1.63;;
40649;SDS011;26342;42.826;23.992;2023-05-07T03:26:30;4.20;;;2.70;;
40649;SDS011;26342;42.826;23.992;2023-05-07T03:28:56;1.17;;;1.08;;
40649;SDS011;26342;42.826;23.992;2023-05-07T03:31:23;1.38;;;1.25;;
40649;SDS011;26342;42.826;23.992;2023-05-07T03:33:53;1.45;;;0.75;;
40649;SDS011;26342;42.826;23.992;2023-05-07T03:36:20;2.00;;;1.00;;
